Ana Sayfa
METAR-TAF:

METAR-TAF

Havaalanları :

Deming, New Mexico, Amerika Birleşik Devletleri

Enlem: 32-15-44N, Boylam: 107-43-14W, yükseklik: 1315 m

Güncel hava durumu gözlemi

Rapor saat 19:53 UTC de 1 saat ve 8 dakika önce yapıldı.
Rüzgar değişken yönden 6 kt
Sıcaklık 32°C
Nem 13%
Basınç 1020 hPa
Görüş mesafesi: 16.1 km
Açık gökyüzü

METAR: KDMN 311953Z AUTO VRB06KT 10SM CLR 32/00 A3011 RMK AO2 SLP109 T03170000

Saat: 15:01 (21:01 UTC)

Tahmin

Rapor saat 17:31 UTC de 3 saat ve 30 dakika önce yapıldı.
Ayın 31'si saat 18 UTC'den ayın 01'si saat 18 UTC'ye kadar geçerli Tahmin
Rüzgar doğudan 13 kt ve 20 kt'a kadar ani rüzgarlar
Görüş mesafesi: 10 km
25000 ft yükseklikte parçalı bulutlu
Ayın 01'si saat 0200 UTC'den
Rüzgar doğudan 8 kt
Görüş mesafesi: 10 km
25000 ft yükseklikte az bulutlu

TAF: KDMN 311731Z 3118/0118 10013G20KT P6SM SCT250 FM010200 09008KT P6SM FEW250

4.000'den fazla havaalanı için hava durumu gözlemleri ve tahminleri (METAR ve TAF raporları).

Kullanılabilir istasyonlar harita üzerinde sarı ve kırmızı noktalarla gösterilir.

İstasyonun adını görmek için fareyi noktanın üzerinde gezdirin.

Sonrasında hava gözlem ve tahminlerini görmek için tıklayın.

Haritayı değiştirmek için: yaklaştırmak için siyah artı işaretli yeşil düğmeye ve uzaklaştırmak için de eksi işaretli düğmeye hızla tıklayın; bitişik haritalar için yeşil okları kullanın.


METAR-TAF: